sensor_id;sensor_type;location;lat;lon;timestamp;pressure;altitude;pressure_sealevel;temperature;humidity
73700;BME280;62005;50.082;8.988;2023-02-12T00:00:59;102620.16;;;6.21;82.63
73700;BME280;62005;50.082;8.988;2023-02-12T00:03:24;102615.06;;;6.18;82.69
73700;BME280;62005;50.082;8.988;2023-02-12T00:05:49;102628.94;;;6.23;82.01
73700;BME280;62005;50.082;8.988;2023-02-12T00:08:15;102627.94;;;6.24;82.35
73700;BME280;62005;50.082;8.988;2023-02-12T00:10:41;102624.38;;;6.23;82.26
73700;BME280;62005;50.082;8.988;2023-02-12T00:13:07;102619.59;;;6.27;82.29
73700;BME280;62005;50.082;8.988;2023-02-12T00:15:33;102625.97;;;6.26;82.36
73700;BME280;62005;50.082;8.988;2023-02-12T00:17:59;102610.13;;;6.23;82.70
73700;BME280;62005;50.082;8.988;2023-02-12T00:20:24;102632.06;;;6.28;82.68
73700;BME280;62005;50.082;8.988;2023-02-12T00:22:49;102630.63;;;6.24;82.41
73700;BME280;62005;50.082;8.988;2023-02-12T00:25:15;102617.03;;;6.16;82.19
73700;BME280;62005;50.082;8.988;2023-02-12T00:27:41;102637.44;;;6.28;82.56
73700;BME280;62005;50.082;8.988;2023-02-12T00:30:06;102618.59;;;6.18;82.95
73700;BME280;62005;50.082;8.988;2023-02-12T00:32:32;102617.03;;;6.16;82.56
73700;BME280;62005;50.082;8.988;2023-02-12T00:34:57;102618.44;;;6.20;82.51
73700;BME280;62005;50.082;8.988;2023-02-12T00:37:22;102623.56;;;6.23;82.71
73700;BME280;62005;50.082;8.988;2023-02-12T00:39:48;102635.72;;;6.27;82.92
73700;BME280;62005;50.082;8.988;2023-02-12T00:42:13;102614.06;;;6.19;82.88
73700;BME280;62005;50.082;8.988;2023-02-12T00:44:38;102604.59;;;6.15;82.35
73700;BME280;62005;50.082;8.988;2023-02-12T00:47:04;102611.38;;;6.19;82.81
73700;BME280;62005;50.082;8.988;2023-02-12T00:49:30;102621.84;;;6.22;83.08
73700;BME280;62005;50.082;8.988;2023-02-12T00:52:00;102621.03;;;6.21;82.94
73700;BME280;62005;50.082;8.988;2023-02-12T00:54:26;102606.59;;;6.13;83.17
73700;BME280;62005;50.082;8.988;2023-02-12T00:56:52;102610.69;;;6.17;83.02
73700;BME280;62005;50.082;8.988;2023-02-12T00:59:17;102605.16;;;6.09;82.94
73700;BME280;62005;50.082;8.988;2023-02-12T01:01:42;102607.41;;;6.13;83.05
73700;BME280;62005;50.082;8.988;2023-02-12T01:04:08;102607.13;;;6.07;82.71
73700;BME280;62005;50.082;8.988;2023-02-12T01:06:33;102617.31;;;6.13;83.08
73700;BME280;62005;50.082;8.988;2023-02-12T01:08:58;102610.25;;;6.12;82.99
73700;BME280;62005;50.082;8.988;2023-02-12T01:11:24;102607.13;;;6.07;82.79
73700;BME280;62005;50.082;8.988;2023-02-12T01:13:49;102608.84;;;6.08;83.02
73700;BME280;62005;50.082;8.988;2023-02-12T01:16:17;102591.59;;;6.01;83.31
73700;BME280;62005;50.082;8.988;2023-02-12T01:18:44;102623.81;;;6.10;83.34
73700;BME280;62005;50.082;8.988;2023-02-12T01:21:12;102583.66;;;5.90;83.61
73700;BME280;62005;50.082;8.988;2023-02-12T01:23:38;102595.53;;;5.97;83.18
73700;BME280;62005;50.082;8.988;2023-02-12T01:26:03;102603.75;;;6.05;83.83
73700;BME280;62005;50.082;8.988;2023-02-12T01:28:29;102619.59;;;6.08;83.47
73700;BME280;62005;50.082;8.988;2023-02-12T01:30:54;102617.88;;;6.07;83.51
73700;BME280;62005;50.082;8.988;2023-02-12T01:33:19;102621.56;;;6.06;83.69
73700;BME280;62005;50.082;8.988;2023-02-12T01:35:45;102580.69;;;5.83;83.42
73700;BME280;62005;50.082;8.988;2023-02-12T01:38:10;102616.19;;;6.06;83.28
73700;BME280;62005;50.082;8.988;2023-02-12T01:40:35;102610.81;;;6.06;83.03
73700;BME280;62005;50.082;8.988;2023-02-12T01:43:01;102607.41;;;6.04;83.64
73700;BME280;62005;50.082;8.988;2023-02-12T01:47:52;102600.06;;;5.96;83.45
73700;BME280;62005;50.082;8.988;2023-02-12T01:50:18;102602.03;;;6.04;83.26
73700;BME280;62005;50.082;8.988;2023-02-12T01:52:50;102605.44;;;6.06;83.73
73700;BME280;62005;50.082;8.988;2023-02-12T01:55:18;102584.78;;;5.97;83.58
73700;BME280;62005;50.082;8.988;2023-02-12T01:57:46;102607.69;;;6.10;83.73
73700;BME280;62005;50.082;8.988;2023-02-12T02:00:16;102599.94;;;6.07;83.29
73700;BME280;62005;50.082;8.988;2023-02-12T02:02:44;102600.94;;;6.06;83.51
73700;BME280;62005;50.082;8.988;2023-02-12T02:05:12;102588.19;;;5.99;83.45
73700;BME280;62005;50.082;8.988;2023-02-12T02:07:40;102598.38;;;6.05;83.44
73700;BME280;62005;50.082;8.988;2023-02-12T02:10:08;102607.84;;;6.09;83.59
73700;BME280;62005;50.082;8.988;2023-02-12T02:12:33;102589.31;;;5.96;83.35
73700;BME280;62005;50.082;8.988;2023-02-12T02:15:18;102587.59;;;5.95;83.06
73700;BME280;62005;50.082;8.988;2023-02-12T02:23:33;102608.84;;;6.08;83.26
73700;BME280;62005;50.082;8.988;2023-02-12T02:34:20;102598.38;;;6.05;83.29
73700;BME280;62005;50.082;8.988;2023-02-12T02:37:43;102599.34;;;6.04;83.32
73700;BME280;62005;50.082;8.988;2023-02-12T02:39:50;102593.56;;;5.99;83.22
73700;BME280;62005;50.082;8.988;2023-02-12T02:42:34;102608.56;;;6.01;83.55
73700;BME280;62005;50.082;8.988;2023-02-12T02:45:03;102604.88;;;6.02;83.14
73700;BME280;62005;50.082;8.988;2023-02-12T02:47:35;102605.44;;;5.96;83.24
73700;BME280;62005;50.082;8.988;2023-02-12T02:50:05;102613.34;;;5.98;83.80
73700;BME280;62005;50.082;8.988;2023-02-12T02:52:39;102593.81;;;5.86;83.01
73700;BME280;62005;50.082;8.988;2023-02-12T02:55:10;102609.09;;;5.95;83.66
73700;BME280;62005;50.082;8.988;2023-02-12T02:57:47;102615.31;;;5.96;83.78
73700;BME280;62005;50.082;8.988;2023-02-12T03:00:22;102622.66;;;5.94;83.86
73700;BME280;62005;50.082;8.988;2023-02-12T03:02:54;102621.53;;;5.96;83.42
73700;BME280;62005;50.082;8.988;2023-02-12T03:05:25;102615.31;;;5.96;83.85
73700;BME280;62005;50.082;8.988;2023-02-12T03:07:59;102600.88;;;5.87;83.64
73700;BME280;62005;50.082;8.988;2023-02-12T03:10:33;102598.34;;;5.86;83.78
73700;BME280;62005;50.082;8.988;2023-02-12T03:13:22;102609.94;;;5.96;84.07
73700;BME280;62005;50.082;8.988;2023-02-12T03:16:04;102611.34;;;5.90;84.33
73700;BME280;62005;50.082;8.988;2023-02-12T03:18:37;102607.38;;;5.85;83.32
73700;BME280;62005;50.082;8.988;2023-02-12T03:21:10;102614.88;;;5.91;84.24
73700;BME280;62005;50.082;8.988;2023-02-12T03:23:51;102583.56;;;5.71;83.92
73700;BME280;62005;50.082;8.988;2023-02-12T03:26:27;102614.16;;;5.89;83.74
73700;BME280;62005;50.082;8.988;2023-02-12T03:28:55;102619.25;;;5.92;84.21
73700;BME280;62005;50.082;8.988;2023-02-12T03:36:58;102622.47;;;5.86;84.39
73700;BME280;62005;50.082;8.988;2023-02-12T03:42:14;102618.59;;;5.79;84.87
73700;BME280;62005;50.082;8.988;2023-02-12T03:44:47;102620.09;;;5.83;84.71
73700;BME280;62005;50.082;8.988;2023-02-12T03:47:20;102626.31;;;5.83;84.12
73700;BME280;62005;50.082;8.988;2023-02-12T03:50:13;102619.22;;;5.82;84.63
73700;BME280;62005;50.082;8.988;2023-02-12T03:52:41;102618.59;;;5.79;84.19
73700;BME280;62005;50.082;8.988;2023-02-12T03:55:08;102599.66;;;5.71;84.70
73700;BME280;62005;50.082;8.988;2023-02-12T03:57:39;102617.06;;;5.76;84.51
73700;BME280;62005;50.082;8.988;2023-02-12T04:00:19;102615.50;;;5.74;84.59
73700;BME280;62005;50.082;8.988;2023-02-12T04:02:44;102599.38;;;5.64;84.47
73700;BME280;62005;50.082;8.988;2023-02-12T04:05:20;102627.38;;;5.81;84.67
73700;BME280;62005;50.082;8.988;2023-02-12T04:07:46;102630.81;;;5.83;84.79
73700;BME280;62005;50.082;8.988;2023-02-12T04:10:12;102629.22;;;5.80;85.14
73700;BME280;62005;50.082;8.988;2023-02-12T04:12:53;102632.50;;;5.84;85.09
73700;BME280;62005;50.082;8.988;2023-02-12T04:15:45;102643.97;;;5.86;84.54
73700;BME280;62005;50.082;8.988;2023-02-12T04:18:18;102641.28;;;5.86;85.11
73700;BME280;62005;50.082;8.988;2023-02-12T04:26:41;102646.63;;;5.86;84.71
73700;BME280;62005;50.082;8.988;2023-02-12T04:29:21;102646.63;;;5.86;84.44
73700;BME280;62005;50.082;8.988;2023-02-12T04:37:20;102655.41;;;5.88;84.90
73700;BME280;62005;50.082;8.988;2023-02-12T04:39:48;102664.19;;;5.90;84.90
73700;BME280;62005;50.082;8.988;2023-02-12T04:42:14;102640.06;;;5.79;84.75
73700;BME280;62005;50.082;8.988;2023-02-12T04:44:42;102652.28;;;5.83;84.86
73700;BME280;62005;50.082;8.988;2023-02-12T04:47:12;102655.41;;;5.88;85.13
73700;BME280;62005;50.082;8.988;2023-02-12T04:49:37;102653.97;;;5.84;85.28
73700;BME280;62005;50.082;8.988;2023-02-12T04:52:03;102642.06;;;5.77;84.68
73700;BME280;62005;50.082;8.988;2023-02-12T04:54:28;102650.81;;;5.79;85.00
73700;BME280;62005;50.082;8.988;2023-02-12T04:56:54;102650.53;;;5.82;85.19
73700;BME280;62005;50.082;8.988;2023-02-12T04:59:19;102671.25;;;5.91;84.72
73700;BME280;62005;50.082;8.988;2023-02-12T05:01:44;102646.44;;;5.78;85.04
73700;BME280;62005;50.082;8.988;2023-02-12T05:04:12;102645.16;;;5.82;84.53
73700;BME280;62005;50.082;8.988;2023-02-12T05:06:39;102665.88;;;5.91;85.30
73700;BME280;62005;50.082;8.988;2023-02-12T05:09:06;102659.66;;;5.90;85.33
73700;BME280;62005;50.082;8.988;2023-02-12T05:11:31;102654.41;;;5.89;84.94
73700;BME280;62005;50.082;8.988;2023-02-12T05:13:57;102652.44;;;5.91;85.23
73700;BME280;62005;50.082;8.988;2023-02-12T05:16:23;102636.44;;;5.80;85.41
73700;BME280;62005;50.082;8.988;2023-02-12T05:18:49;102637.88;;;5.84;85.20
73700;BME280;62005;50.082;8.988;2023-02-12T05:21:14;102645.97;;;5.93;85.34
73700;BME280;62005;50.082;8.988;2023-02-12T05:23:40;102634.22;;;5.85;85.11
73700;BME280;62005;50.082;8.988;2023-02-12T05:26:12;102646.09;;;5.92;85.14
73700;BME280;62005;50.082;8.988;2023-02-12T05:28:38;102651.44;;;5.92;85.34
73700;BME280;62005;50.082;8.988;2023-02-12T05:31:05;102613.81;;;5.73;85.79
73700;BME280;62005;50.082;8.988;2023-02-12T05:33:31;102636.19;;;5.83;84.79
73700;BME280;62005;50.082;8.988;2023-02-12T05:36:05;102643.22;;;5.84;84.86
73700;BME280;62005;50.082;8.988;2023-02-12T05:38:32;102644.41;;;5.91;84.69
73700;BME280;62005;50.082;8.988;2023-02-12T05:41:05;102653.44;;;5.90;84.93
73700;BME280;62005;50.082;8.988;2023-02-12T05:43:31;102630.81;;;5.83;85.06
73700;BME280;62005;50.082;8.988;2023-02-12T05:46:00;102635.34;;;5.92;84.85
73700;BME280;62005;50.082;8.988;2023-02-12T05:48:27;102653.16;;;5.93;85.07
73700;BME280;62005;50.082;8.988;2023-02-12T05:50:53;102655.72;;;5.94;84.95
73700;BME280;62005;50.082;8.988;2023-02-12T05:53:19;102659.94;;;5.97;84.63
73700;BME280;62005;50.082;8.988;2023-02-12T05:55:44;102645.63;;;5.87;84.51
73700;BME280;62005;50.082;8.988;2023-02-12T05:58:09;102662.47;;;5.89;85.13
73700;BME280;62005;50.082;8.988;2023-02-12T06:00:35;102639.13;;;5.80;84.86
73700;BME280;62005;50.082;8.988;2023-02-12T06:03:00;102666.31;;;5.96;85.30
73700;BME280;62005;50.082;8.988;2023-02-12T06:05:25;102666.31;;;5.96;84.39
73700;BME280;62005;50.082;8.988;2023-02-12T06:07:51;102661.94;;;5.95;84.83
73700;BME280;62005;50.082;8.988;2023-02-12T06:10:16;102665.59;;;5.94;84.96
73700;BME280;62005;50.082;8.988;2023-02-12T06:12:42;102646.91;;;5.83;84.85
73700;BME280;62005;50.082;8.988;2023-02-12T06:15:07;102653.69;;;5.87;85.10
73700;BME280;62005;50.082;8.988;2023-02-12T06:17:33;102662.47;;;5.89;84.76
73700;BME280;62005;50.082;8.988;2023-02-12T06:19:58;102668.13;;;5.95;85.34
73700;BME280;62005;50.082;8.988;2023-02-12T06:22:24;102651.44;;;5.82;85.22
73700;BME280;62005;50.082;8.988;2023-02-12T06:24:49;102668.72;;;5.99;85.54
73700;BME280;62005;50.082;8.988;2023-02-12T06:27:14;102657.38;;;5.86;84.93
73700;BME280;62005;50.082;8.988;2023-02-12T06:29:40;102659.06;;;5.87;85.00
73700;BME280;62005;50.082;8.988;2023-02-12T06:32:05;102679.44;;;5.99;85.34
73700;BME280;62005;50.082;8.988;2023-02-12T06:34:33;102685.53;;;6.01;85.11
73700;BME280;62005;50.082;8.988;2023-02-12T06:36:58;102659.06;;;5.87;85.22
73700;BME280;62005;50.082;8.988;2023-02-12T06:39:23;102672.91;;;5.92;85.58
73700;BME280;62005;50.082;8.988;2023-02-12T06:41:49;102671.50;;;5.88;85.35
73700;BME280;62005;50.082;8.988;2023-02-12T06:44:14;102667.84;;;5.89;85.36
73700;BME280;62005;50.082;8.988;2023-02-12T06:46:40;102697.28;;;6.00;85.41
73700;BME280;62005;50.082;8.988;2023-02-12T06:49:05;102692.16;;;5.97;85.59
73700;BME280;62005;50.082;8.988;2023-02-12T06:51:31;102697.81;;;5.94;85.70
73700;BME280;62005;50.082;8.988;2023-02-12T06:53:56;102692.44;;;5.94;85.78
73700;BME280;62005;50.082;8.988;2023-02-12T06:56:23;102708.41;;;5.95;85.07
73700;BME280;62005;50.082;8.988;2023-02-12T06:58:56;102708.25;;;5.97;85.79
73700;BME280;62005;50.082;8.988;2023-02-12T07:01:25;102689.31;;;5.89;85.49
73700;BME280;62005;50.082;8.988;2023-02-12T07:03:53;102704.16;;;5.93;85.58
73700;BME280;62005;50.082;8.988;2023-02-12T07:06:19;102713.91;;;5.94;85.29
73700;BME280;62005;50.082;8.988;2023-02-12T07:08:45;102712.22;;;5.93;85.57
73700;BME280;62005;50.082;8.988;2023-02-12T07:11:11;102701.75;;;5.90;86.02
73700;BME280;62005;50.082;8.988;2023-02-12T07:13:37;102706.84;;;5.93;85.86
73700;BME280;62005;50.082;8.988;2023-02-12T07:16:14;102698.06;;;5.91;85.95
73700;BME280;62005;50.082;8.988;2023-02-12T07:18:40;102716.75;;;6.02;85.96
73700;BME280;62005;50.082;8.988;2023-02-12T07:21:06;102717.63;;;6.02;86.08
73700;BME280;62005;50.082;8.988;2023-02-12T07:23:35;102718.75;;;6.00;85.77
73700;BME280;62005;50.082;8.988;2023-02-12T07:26:03;102727.25;;;6.05;86.00
73700;BME280;62005;50.082;8.988;2023-02-12T07:28:29;102717.75;;;6.01;86.30
73700;BME280;62005;50.082;8.988;2023-02-12T07:30:57;102715.06;;;6.01;85.60
73700;BME280;62005;50.082;8.988;2023-02-12T07:33:23;102730.63;;;6.07;85.75
73700;BME280;62005;50.082;8.988;2023-02-12T07:35:48;102721.88;;;6.05;85.66
73700;BME280;62005;50.082;8.988;2023-02-12T07:38:13;102728.94;;;6.06;85.69
73700;BME280;62005;50.082;8.988;2023-02-12T07:40:39;102734.03;;;6.09;86.29
73700;BME280;62005;50.082;8.988;2023-02-12T07:43:05;102722.84;;;6.04;85.64
73700;BME280;62005;50.082;8.988;2023-02-12T07:45:30;102727.25;;;6.05;85.64
73700;BME280;62005;50.082;8.988;2023-02-12T07:47:55;102736.00;;;6.07;86.18
73700;BME280;62005;50.082;8.988;2023-02-12T07:50:20;102718.75;;;6.00;86.21
73700;BME280;62005;50.082;8.988;2023-02-12T07:52:48;102725.53;;;6.04;85.82
73700;BME280;62005;50.082;8.988;2023-02-12T07:55:14;102741.09;;;6.10;86.21
73700;BME280;62005;50.082;8.988;2023-02-12T07:57:39;102723.84;;;6.03;86.18
73700;BME280;62005;50.082;8.988;2023-02-12T08:00:05;102737.72;;;6.08;85.75
73700;BME280;62005;50.082;8.988;2023-02-12T08:02:30;102738.41;;;6.10;85.78
73700;BME280;62005;50.082;8.988;2023-02-12T08:04:56;102751.03;;;6.19;86.43
73700;BME280;62005;50.082;8.988;2023-02-12T08:07:22;102738.28;;;6.11;86.33
73700;BME280;62005;50.082;8.988;2023-02-12T08:09:48;102745.94;;;6.16;86.90
73700;BME280;62005;50.082;8.988;2023-02-12T08:12:15;102750.75;;;6.22;87.08
73700;BME280;62005;50.082;8.988;2023-02-12T08:14:40;102748.78;;;6.24;87.21
73700;BME280;62005;50.082;8.988;2023-02-12T08:17:05;102752.72;;;6.20;87.41
73700;BME280;62005;50.082;8.988;2023-02-12T08:19:32;102733.91;;;6.20;87.41
73700;BME280;62005;50.082;8.988;2023-02-12T08:21:57;102754.16;;;6.24;87.60
73700;BME280;62005;50.082;8.988;2023-02-12T08:24:23;102753.59;;;6.30;87.02
73700;BME280;62005;50.082;8.988;2023-02-12T08:26:49;102747.41;;;6.29;87.60
73700;BME280;62005;50.082;8.988;2023-02-12T08:29:18;102736.59;;;6.20;87.58
73700;BME280;62005;50.082;8.988;2023-02-12T08:31:46;102765.50;;;6.37;87.02
73700;BME280;62005;50.082;8.988;2023-02-12T08:34:21;102756.44;;;6.38;87.11
73700;BME280;62005;50.082;8.988;2023-02-12T08:36:48;102761.56;;;6.41;87.19
73700;BME280;62005;50.082;8.988;2023-02-12T08:39:14;102764.94;;;6.43;87.30
73700;BME280;62005;50.082;8.988;2023-02-12T08:41:40;102732.09;;;6.30;87.10
73700;BME280;62005;50.082;8.988;2023-02-12T08:44:09;102728.75;;;6.28;87.08
73700;BME280;62005;50.082;8.988;2023-02-12T08:46:38;102767.81;;;6.51;87.33
73700;BME280;62005;50.082;8.988;2023-02-12T08:49:11;102690.22;;;6.08;87.06
73700;BME280;62005;50.082;8.988;2023-02-12T08:51:39;102685.97;;;6.06;86.75
73700;BME280;62005;50.082;8.988;2023-02-12T08:54:06;102731.13;;;6.31;86.80
73700;BME280;62005;50.082;8.988;2023-02-12T08:56:34;102762.16;;;6.54;86.89
73700;BME280;62005;50.082;8.988;2023-02-12T08:59:01;102773.34;;;6.59;86.30
73700;BME280;62005;50.082;8.988;2023-02-12T09:01:32;102769.22;;;6.55;86.53
73700;BME280;62005;50.082;8.988;2023-02-12T09:03:59;102773.78;;;6.64;86.69
73700;BME280;62005;50.082;8.988;2023-02-12T09:06:26;102751.69;;;6.51;86.32
73700;BME280;62005;50.082;8.988;2023-02-12T09:08:55;102751.13;;;6.47;86.45
73700;BME280;62005;50.082;8.988;2023-02-12T09:11:23;102771.91;;;6.55;86.55
73700;BME280;62005;50.082;8.988;2023-02-12T09:13:58;102785.94;;;6.68;86.65
73700;BME280;62005;50.082;8.988;2023-02-12T09:16:24;102789.34;;;6.70;86.56
73700;BME280;62005;50.082;8.988;2023-02-12T09:18:49;102778.88;;;6.67;86.60
73700;BME280;62005;50.082;8.988;2023-02-12T09:21:18;102782.84;;;6.73;86.64
73700;BME280;62005;50.082;8.988;2023-02-12T09:23:44;102780.03;;;6.74;86.61
73700;BME280;62005;50.082;8.988;2023-02-12T09:26:13;102777.78;;;6.79;86.74
73700;BME280;62005;50.082;8.988;2023-02-12T09:28:42;102781.44;;;6.78;86.46
73700;BME280;62005;50.082;8.988;2023-02-12T09:31:13;102770.09;;;6.75;86.63
73700;BME280;62005;50.082;8.988;2023-02-12T09:33:42;102748.31;;;6.68;86.96
73700;BME280;62005;50.082;8.988;2023-02-12T09:36:10;102729.63;;;6.57;86.86
73700;BME280;62005;50.082;8.988;2023-02-12T09:38:36;102777.50;;;6.92;86.84
73700;BME280;62005;50.082;8.988;2023-02-12T09:46:34;102773.25;;;7.08;85.96
73700;BME280;62005;50.082;8.988;2023-02-12T09:52:21;102773.09;;;7.19;86.71
73700;BME280;62005;50.082;8.988;2023-02-12T09:54:49;102773.22;;;7.27;86.16
73700;BME280;62005;50.082;8.988;2023-02-12T09:57:35;102777.34;;;7.31;85.99
73700;BME280;62005;50.082;8.988;2023-02-12T10:00:10;102770.13;;;7.32;85.68
73700;BME280;62005;50.082;8.988;2023-02-12T10:02:41;102744.94;;;7.23;85.83
73700;BME280;62005;50.082;8.988;2023-02-12T10:05:24;102776.91;;;7.45;86.11
73700;BME280;62005;50.082;8.988;2023-02-12T10:26:49;102772.72;;;7.89;85.25
73700;BME280;62005;50.082;8.988;2023-02-12T10:29:20;102770.97;;;7.97;85.75
73700;BME280;62005;50.082;8.988;2023-02-12T10:31:54;102750.44;;;7.97;85.40
73700;BME280;62005;50.082;8.988;2023-02-12T10:34:29;102756.03;;;8.13;84.67
73700;BME280;62005;50.082;8.988;2023-02-12T10:37:02;102755.44;;;8.19;85.16
73700;BME280;62005;50.082;8.988;2023-02-12T10:39:34;102759.13;;;8.27;85.12
73700;BME280;62005;50.082;8.988;2023-02-12T10:42:21;102744.63;;;8.28;84.74
73700;BME280;62005;50.082;8.988;2023-02-12T10:44:50;102741.50;;;8.33;84.04
73700;BME280;62005;50.082;8.988;2023-02-12T10:47:23;102749.38;;;8.44;84.74
73700;BME280;62005;50.082;8.988;2023-02-12T10:49:54;102733.22;;;8.44;84.28
73700;BME280;62005;50.082;8.988;2023-02-12T10:52:43;102728.91;;;8.51;84.68
73700;BME280;62005;50.082;8.988;2023-02-12T10:55:30;102740.50;;;8.61;84.25
73700;BME280;62005;50.082;8.988;2023-02-12T10:57:57;102716.66;;;8.56;83.95
73700;BME280;62005;50.082;8.988;2023-02-12T11:00:39;102671.16;;;8.36;83.68
73700;BME280;62005;50.082;8.988;2023-02-12T11:03:20;102700.72;;;8.63;84.11
73700;BME280;62005;50.082;8.988;2023-02-12T11:05:51;102674.69;;;8.54;83.51
73700;BME280;62005;50.082;8.988;2023-02-12T11:08:52;102678.88;;;8.66;83.68
73700;BME280;62005;50.082;8.988;2023-02-12T11:16:28;102672.44;;;8.84;83.90
73700;BME280;62005;50.082;8.988;2023-02-12T11:19:02;102709.31;;;9.19;83.46
73700;BME280;62005;50.082;8.988;2023-02-12T11:21:28;102711.78;;;9.30;83.07
73700;BME280;62005;50.082;8.988;2023-02-12T11:23:54;102703.28;;;9.43;83.01
73700;BME280;62005;50.082;8.988;2023-02-12T11:29:02;102689.38;;;9.55;82.10
73700;BME280;62005;50.082;8.988;2023-02-12T11:31:33;102696.53;;;9.72;82.73
73700;BME280;62005;50.082;8.988;2023-02-12T11:36:43;102675.00;;;9.88;81.90
73700;BME280;62005;50.082;8.988;2023-02-12T11:39:22;102690.69;;;10.10;81.98
73700;BME280;62005;50.082;8.988;2023-02-12T11:41:57;102679.91;;;10.18;81.49
73700;BME280;62005;50.082;8.988;2023-02-12T11:44:27;102686.38;;;10.33;80.91
73700;BME280;62005;50.082;8.988;2023-02-12T11:47:00;102680.81;;;10.43;81.06
73700;BME280;62005;50.082;8.988;2023-02-12T11:49:33;102678.97;;;10.51;80.65
73700;BME280;62005;50.082;8.988;2023-02-12T11:52:03;102679.31;;;10.57;80.20
73700;BME280;62005;50.082;8.988;2023-02-12T11:54:31;102676.97;;;10.62;79.72
73700;BME280;62005;50.082;8.988;2023-02-12T11:56:58;102666.50;;;10.67;79.63
73700;BME280;62005;50.082;8.988;2023-02-12T12:02:26;102656.53;;;10.83;79.36
73700;BME280;62005;50.082;8.988;2023-02-12T12:05:06;102668.56;;;10.97;79.04
73700;BME280;62005;50.082;8.988;2023-02-12T12:07:34;102656.03;;;11.04;78.91
73700;BME280;62005;50.082;8.988;2023-02-12T12:10:40;102638.44;;;11.00;78.54
73700;BME280;62005;50.082;8.988;2023-02-12T12:13:14;102656.69;;;11.22;78.18
73700;BME280;62005;50.082;8.988;2023-02-12T12:15:47;102646.53;;;11.24;78.19
73700;BME280;62005;50.082;8.988;2023-02-12T12:18:55;102649.22;;;11.40;78.48
73700;BME280;62005;50.082;8.988;2023-02-12T12:26:39;102635.09;;;11.60;76.85
73700;BME280;62005;50.082;8.988;2023-02-12T12:29:26;102601.47;;;11.47;76.27
73700;BME280;62005;50.082;8.988;2023-02-12T12:31:59;102631.72;;;11.74;76.44
73700;BME280;62005;50.082;8.988;2023-02-12T12:34:27;102630.50;;;11.77;76.47
73700;BME280;62005;50.082;8.988;2023-02-12T12:45:24;102624.38;;;11.91;74.74
73700;BME280;62005;50.082;8.988;2023-02-12T12:56:49;102610.09;;;11.97;74.49
73700;BME280;62005;50.082;8.988;2023-02-12T13:04:38;102609.81;;;11.84;73.06
73700;BME280;62005;50.082;8.988;2023-02-12T13:07:47;102605.25;;;11.85;73.49
73700;BME280;62005;50.082;8.988;2023-02-12T13:10:24;102605.06;;;11.86;74.37
73700;BME280;62005;50.082;8.988;2023-02-12T13:13:00;102606.72;;;11.95;74.53
73700;BME280;62005;50.082;8.988;2023-02-12T13:18:19;102601.91;;;12.05;74.07
73700;BME280;62005;50.082;8.988;2023-02-12T13:20:57;102596.50;;;12.05;73.76
73700;BME280;62005;50.082;8.988;2023-02-12T13:29:09;102588.66;;;12.10;73.76
73700;BME280;62005;50.082;8.988;2023-02-12T13:31:44;102576.88;;;12.03;74.33
73700;BME280;62005;50.082;8.988;2023-02-12T13:34:16;102567.34;;;12.07;73.92
73700;BME280;62005;50.082;8.988;2023-02-12T13:36:44;102582.88;;;12.13;74.07
73700;BME280;62005;50.082;8.988;2023-02-12T13:39:34;102582.19;;;12.19;73.79
73700;BME280;62005;50.082;8.988;2023-02-12T13:45:11;102576.75;;;12.19;73.46
73700;BME280;62005;50.082;8.988;2023-02-12T13:48:15;102564.47;;;12.31;73.64
73700;BME280;62005;50.082;8.988;2023-02-12T13:56:39;102580.09;;;12.29;72.86
73700;BME280;62005;50.082;8.988;2023-02-12T14:04:57;102583.56;;;12.15;72.81
73700;BME280;62005;50.082;8.988;2023-02-12T14:08:00;102576.50;;;12.06;73.04
73700;BME280;62005;50.082;8.988;2023-02-12T14:11:07;102585.97;;;12.10;73.76
73700;BME280;62005;50.082;8.988;2023-02-12T14:13:36;102576.16;;;12.09;72.70
73700;BME280;62005;50.082;8.988;2023-02-12T14:16:33;102579.03;;;12.08;72.72
73700;BME280;62005;50.082;8.988;2023-02-12T14:33:48;102577.94;;;11.94;74.45
73700;BME280;62005;50.082;8.988;2023-02-12T14:41:29;102580.69;;;11.86;74.61
73700;BME280;62005;50.082;8.988;2023-02-12T14:47:15;102569.53;;;11.81;74.32
73700;BME280;62005;50.082;8.988;2023-02-12T15:02:58;102565.53;;;11.61;75.31
73700;BME280;62005;50.082;8.988;2023-02-12T15:05:41;102561.84;;;11.46;74.33
73700;BME280;62005;50.082;8.988;2023-02-12T15:11:05;102564.91;;;11.43;75.19
73700;BME280;62005;50.082;8.988;2023-02-12T15:16:13;102557.50;;;11.37;75.58
73700;BME280;62005;50.082;8.988;2023-02-12T15:21:25;102559.72;;;11.33;75.20
73700;BME280;62005;50.082;8.988;2023-02-12T15:24:12;102563.09;;;11.27;75.15
73700;BME280;62005;50.082;8.988;2023-02-12T15:26:45;102556.34;;;11.23;75.22
73700;BME280;62005;50.082;8.988;2023-02-12T15:29:30;102560.59;;;11.18;75.24
73700;BME280;62005;50.082;8.988;2023-02-12T15:32:00;102534.91;;;10.98;75.44
73700;BME280;62005;50.082;8.988;2023-02-12T15:34:33;102554.38;;;11.01;75.58
73700;BME280;62005;50.082;8.988;2023-02-12T15:37:02;102552.88;;;10.99;75.48
73700;BME280;62005;50.082;8.988;2023-02-12T15:41:59;102545.44;;;10.85;75.83
73700;BME280;62005;50.082;8.988;2023-02-12T15:44:27;102539.88;;;10.78;75.59
73700;BME280;62005;50.082;8.988;2023-02-12T15:46:57;102566.22;;;10.84;75.83
73700;BME280;62005;50.082;8.988;2023-02-12T15:49:35;102552.19;;;10.73;76.01
73700;BME280;62005;50.082;8.988;2023-02-12T15:52:07;102554.59;;;10.68;75.60
73700;BME280;62005;50.082;8.988;2023-02-12T15:54:34;102534.31;;;10.56;76.26
73700;BME280;62005;50.082;8.988;2023-02-12T15:57:00;102543.44;;;10.54;76.27
73700;BME280;62005;50.082;8.988;2023-02-12T15:59:26;102543.44;;;10.54;76.65
73700;BME280;62005;50.082;8.988;2023-02-12T16:02:01;102559.00;;;10.52;76.54
73700;BME280;62005;50.082;8.988;2023-02-12T16:04:32;102554.41;;;10.45;76.48
73700;BME280;62005;50.082;8.988;2023-02-12T16:06:59;102536.00;;;10.32;76.92
73700;BME280;62005;50.082;8.988;2023-02-12T16:09:35;102544.13;;;10.32;77.10